Time;durP1;ratioP1;P1;durP2;ratioP2;P2;SDS_P1;SDS_P2;PMS_P1;PMS_P2;Temp;Humidity;BMP_temperature;BMP_pressure;BME280_temperature;BME280_humidity;BME280_pressure;Samples;Min_cycle;Max_cycle;Signal;HPM_P1;HPM_P2
2023/12/09 00:01:14;;;;;;;65.97;23.98;;;7.80;99.90;;;;;;5035963;28;20048;-77
2023/12/09 00:03:39;;;;;;;69.45;23.58;;;7.80;99.90;;;;;;5031283;28;20493;-77
2023/12/09 00:06:05;;;;;;;67.82;23.30;;;7.80;99.90;;;;;;5033587;28;20052;-77
2023/12/09 00:08:31;;;;;;;63.42;23.42;;;7.80;99.90;;;;;;5028795;28;20633;-76
2023/12/09 00:10:57;;;;;;;70.38;24.20;;;7.80;99.90;;;;;;5036288;28;20128;-76
2023/12/09 00:13:22;;;;;;;73.40;25.05;;;7.80;99.90;;;;;;5034434;28;20040;-77
2023/12/09 00:15:48;;;;;;;69.60;22.38;;;7.80;99.90;;;;;;5035544;28;20037;-78
2023/12/09 00:18:15;;;;;;;77.25;23.52;;;7.80;99.90;;;;;;5035280;28;20138;-76
2023/12/09 00:20:40;;;;;;;69.38;23.25;;;7.80;99.90;;;;;;5035144;28;20029;-76
2023/12/09 00:23:07;;;;;;;63.72;23.17;;;7.80;99.90;;;;;;5034427;28;20045;-76
2023/12/09 00:25:33;;;;;;;71.95;23.20;;;7.80;99.90;;;;;;5033781;28;20051;-76
2023/12/09 00:27:59;;;;;;;62.67;22.67;;;7.80;99.90;;;;;;5051972;28;20052;-76
2023/12/09 00:30:25;;;;;;;69.35;22.42;;;7.80;99.90;;;;;;5034391;28;20041;-76
2023/12/09 00:32:51;;;;;;;62.50;22.77;;;7.80;99.90;;;;;;5035197;28;20124;-76
2023/12/09 00:35:17;;;;;;;64.32;22.95;;;7.80;99.90;;;;;;5017969;28;20045;-77
2023/12/09 00:37:43;;;;;;;61.75;22.25;;;7.80;99.90;;;;;;5036974;28;20037;-79
2023/12/09 00:40:09;;;;;;;72.80;22.58;;;7.80;99.90;;;;;;5037594;28;20559;-77
2023/12/09 00:42:35;;;;;;;77.22;23.50;;;7.80;99.90;;;;;;5034108;28;20047;-77
2023/12/09 00:45:00;;;;;;;60.70;21.63;;;7.80;99.90;;;;;;5034551;28;20052;-78
2023/12/09 00:47:26;;;;;;;55.08;21.83;;;7.80;99.90;;;;;;5017033;28;20429;-76
2023/12/09 00:49:51;;;;;;;64.38;22.13;;;7.80;99.90;;;;;;5034539;28;20120;-76
2023/12/09 00:52:17;;;;;;;62.88;22.83;;;7.80;99.90;;;;;;5032922;28;20036;-76
2023/12/09 00:54:42;;;;;;;60.35;22.08;;;7.80;99.90;;;;;;5051368;28;20044;-76
2023/12/09 00:57:08;;;;;;;65.97;21.60;;;7.80;99.90;;;;;;5034917;28;20052;-76
2023/12/09 00:59:34;;;;;;;65.63;22.20;;;7.80;99.90;;;;;;5034121;28;20052;-76
2023/12/09 01:02:00;;;;;;;65.80;21.67;;;7.80;99.90;;;;;;5049423;28;20048;-76
2023/12/09 01:04:26;;;;;;;61.40;22.30;;;7.80;99.90;;;;;;5030677;28;20037;-76
2023/12/09 01:06:51;;;;;;;70.40;21.77;;;7.80;99.90;;;;;;5017396;28;20513;-77
2023/12/09 01:09:17;;;;;;;72.07;22.60;;;7.80;99.90;;;;;;5017723;28;20071;-76
2023/12/09 01:11:42;;;;;;;52.67;22.10;;;7.80;99.90;;;;;;5052381;28;20066;-76
2023/12/09 01:14:08;;;;;;;61.97;22.08;;;7.80;99.90;;;;;;5034330;28;20060;-76
2023/12/09 01:16:34;;;;;;;59.67;22.17;;;7.80;99.90;;;;;;5031451;28;20045;-76
2023/12/09 01:18:59;;;;;;;64.90;22.05;;;7.80;99.90;;;;;;5034531;28;20041;-78
2023/12/09 01:21:25;;;;;;;61.22;21.10;;;7.80;99.90;;;;;;5051815;28;20592;-77
2023/12/09 01:23:50;;;;;;;55.33;21.83;;;7.80;99.90;;;;;;5034128;28;20497;-77
2023/12/09 01:26:16;;;;;;;71.25;23.55;;;7.80;99.90;;;;;;5015448;28;20041;-77
2023/12/09 01:28:41;;;;;;;73.57;22.95;;;7.80;99.90;;;;;;5034000;28;20060;-76
2023/12/09 01:31:07;;;;;;;61.95;21.70;;;7.80;99.90;;;;;;5034513;28;20037;-76
2023/12/09 01:33:33;;;;;;;59.38;21.30;;;7.80;99.90;;;;;;5033629;28;20045;-76
2023/12/09 01:35:58;;;;;;;64.53;22.77;;;7.80;99.90;;;;;;5034072;28;20051;-77
2023/12/09 01:38:24;;;;;;;55.63;21.70;;;7.80;99.90;;;;;;5033353;28;20029;-77
2023/12/09 01:40:54;;;;;;;53.65;20.13;;;7.80;99.90;;;;;;5012639;28;20041;-76
2023/12/09 01:43:20;;;;;;;59.65;20.50;;;7.80;99.90;;;;;;5048722;28;20045;-76
2023/12/09 01:45:46;;;;;;;66.40;21.45;;;7.90;99.90;;;;;;5050582;28;20454;-80
2023/12/09 01:48:12;;;;;;;54.22;20.58;;;7.80;99.90;;;;;;5017271;28;20045;-76
2023/12/09 01:50:38;;;;;;;51.85;20.05;;;7.90;99.90;;;;;;5034344;28;20393;-77
2023/12/09 01:53:03;;;;;;;57.03;20.63;;;7.90;99.90;;;;;;5033634;28;20044;-76
2023/12/09 01:55:29;;;;;;;58.45;20.65;;;7.90;99.90;;;;;;5033297;28;20045;-77
2023/12/09 01:57:55;;;;;;;59.22;20.48;;;7.90;99.90;;;;;;5051762;28;20055;-77
2023/12/09 02:00:21;;;;;;;63.45;20.10;;;7.90;99.90;;;;;;5033495;28;20045;-79
2023/12/09 02:02:46;;;;;;;62.00;20.52;;;7.90;99.90;;;;;;5032745;28;20040;-77
2023/12/09 02:05:12;;;;;;;59.83;21.25;;;7.90;99.90;;;;;;5023458;28;20545;-76
2023/12/09 02:07:38;;;;;;;59.28;20.15;;;7.90;99.90;;;;;;5043149;28;20029;-76
2023/12/09 02:10:04;;;;;;;53.58;20.70;;;7.90;99.90;;;;;;5024138;28;20501;-76
2023/12/09 02:12:56;;;;;;;61.03;19.23;;;7.90;99.90;;;;;;5020657;28;20062;-77
2023/12/09 02:15:25;;;;;;;69.63;20.48;;;7.90;99.90;;;;;;5023940;28;20505;-77
2023/12/09 02:17:58;;;;;;;50.78;18.65;;;7.90;99.90;;;;;;5023230;28;20048;-79
2023/12/09 02:20:26;;;;;;;55.25;19.75;;;7.90;99.90;;;;;;5021619;28;20090;-77
2023/12/09 02:23:11;;;;;;;51.72;20.10;;;7.90;99.90;;;;;;5024003;28;20524;-77
2023/12/09 02:25:37;;;;;;;53.20;19.90;;;7.90;99.90;;;;;;5021927;28;20427;-76
2023/12/09 02:28:25;;;;;;;48.90;19.05;;;7.90;99.90;;;;;;5030589;28;20529;-76
2023/12/09 02:31:04;;;;;;;49.97;18.88;;;7.90;99.90;;;;;;5033119;28;20405;-76
2023/12/09 02:33:31;;;;;;;49.88;18.98;;;7.90;99.90;;;;;;5024473;28;20033;-78
2023/12/09 02:35:59;;;;;;;57.33;18.80;;;7.90;99.90;;;;;;5032488;28;20132;-77
2023/12/09 02:38:27;;;;;;;54.60;18.73;;;7.90;99.90;;;;;;5029554;28;20059;-76
2023/12/09 02:40:52;;;;;;;50.47;18.67;;;7.90;99.90;;;;;;5033031;28;20049;-76
2023/12/09 02:43:19;;;;;;;50.42;17.83;;;7.90;99.90;;;;;;5032471;28;20045;-77
2023/12/09 02:45:48;;;;;;;47.25;18.08;;;7.90;99.90;;;;;;5032673;28;20102;-76
2023/12/09 02:48:14;;;;;;;55.70;18.73;;;7.90;99.90;;;;;;5032079;28;20501;-76
2023/12/09 02:50:39;;;;;;;48.40;17.60;;;7.90;99.90;;;;;;5016624;28;20029;-76
2023/12/09 02:53:05;;;;;;;52.85;18.15;;;7.80;99.90;;;;;;5032843;28;20135;-79
2023/12/09 02:55:30;;;;;;;49.13;18.10;;;7.80;99.90;;;;;;5030791;28;20410;-77
2023/12/09 02:57:56;;;;;;;54.03;17.55;;;7.80;99.90;;;;;;5032802;28;20409;-77
2023/12/09 03:00:21;;;;;;;58.90;18.40;;;7.80;99.90;;;;;;5048655;28;20045;-76
2023/12/09 03:02:47;;;;;;;51.58;18.35;;;7.80;99.90;;;;;;5032617;28;20044;-76
2023/12/09 03:05:13;;;;;;;53.03;18.73;;;7.80;99.90;;;;;;5049717;28;20037;-77
2023/12/09 03:07:38;;;;;;;52.67;17.27;;;7.80;99.90;;;;;;5032678;28;20115;-76
2023/12/09 03:10:04;;;;;;;48.75;17.00;;;7.70;99.90;;;;;;5032584;28;20048;-76
2023/12/09 03:12:29;;;;;;;51.00;18.23;;;7.80;99.90;;;;;;5013834;28;20124;-77
2023/12/09 03:14:55;;;;;;;49.90;16.63;;;7.70;99.90;;;;;;5049903;28;20051;-76
2023/12/09 03:17:21;;;;;;;48.58;17.17;;;7.70;99.90;;;;;;5031253;28;20485;-77
2023/12/09 03:19:46;;;;;;;44.17;16.40;;;7.70;99.90;;;;;;5033018;28;20055;-78
2023/12/09 03:22:12;;;;;;;43.72;16.35;;;7.70;99.90;;;;;;5032439;28;20044;-76
2023/12/09 03:24:38;;;;;;;52.20;16.60;;;7.70;99.90;;;;;;5030208;28;20041;-76
2023/12/09 03:27:04;;;;;;;52.80;16.00;;;7.70;99.90;;;;;;5065253;22;20049;-72
2023/12/09 03:29:29;;;;;;;46.95;14.93;;;7.70;99.90;;;;;;5025059;28;20046;-72
2023/12/09 03:31:56;;;;;;;54.92;17.30;;;7.70;99.90;;;;;;5026610;28;20408;-72
2023/12/09 03:34:21;;;;;;;50.65;16.27;;;7.70;99.90;;;;;;5032486;28;20047;-72
2023/12/09 03:36:47;;;;;;;49.30;15.85;;;7.70;99.90;;;;;;5011815;28;20131;-72
2023/12/09 03:39:12;;;;;;;46.03;15.43;;;7.80;99.90;;;;;;5018039;28;20133;-72
2023/12/09 03:41:38;;;;;;;44.90;15.50;;;7.80;99.90;;;;;;5014368;28;20073;-72
2023/12/09 03:44:04;;;;;;;45.92;14.85;;;7.70;99.90;;;;;;5014542;28;20091;-72
2023/12/09 03:46:33;;;;;;;51.92;15.57;;;7.70;99.90;;;;;;5048854;28;20037;-72
2023/12/09 03:48:58;;;;;;;50.22;15.73;;;7.80;99.90;;;;;;5034093;28;20032;-72
2023/12/09 03:51:24;;;;;;;42.83;15.35;;;7.80;99.90;;;;;;5049586;28;20416;-72
2023/12/09 03:53:54;;;;;;;44.88;15.00;;;7.80;99.90;;;;;;5034126;28;20045;-71
2023/12/09 03:56:21;;;;;;;39.95;14.52;;;7.80;99.90;;;;;;5047473;28;20044;-72
2023/12/09 03:58:47;;;;;;;37.88;13.77;;;7.80;99.90;;;;;;5031888;28;20083;-72
2023/12/09 04:01:13;;;;;;;39.60;15.10;;;7.80;99.90;;;;;;5045455;28;20162;-72
2023/12/09 04:03:39;;;;;;;43.05;14.63;;;7.80;99.90;;;;;;5046031;28;20682;-72
2023/12/09 04:06:05;;;;;;;43.92;14.07;;;7.80;99.90;;;;;;5050962;28;20033;-72
2023/12/09 04:08:33;;;;;;;43.65;14.95;;;7.80;99.90;;;;;;5031100;28;20072;-73
2023/12/09 04:10:58;;;;;;;44.65;14.43;;;7.80;99.90;;;;;;5036627;28;20144;-73
2023/12/09 04:13:27;;;;;;;47.15;14.02;;;7.80;99.90;;;;;;5035734;28;20088;-73
2023/12/09 04:15:52;;;;;;;50.05;15.52;;;7.80;99.90;;;;;;5040644;28;20047;-72
2023/12/09 04:18:18;;;;;;;39.50;13.90;;;7.80;99.90;;;;;;5032044;28;20115;-72
2023/12/09 04:20:44;;;;;;;40.92;13.80;;;7.80;99.90;;;;;;5037447;28;20045;-73
2023/12/09 04:23:09;;;;;;;47.75;14.50;;;7.80;99.90;;;;;;5030026;28;20111;-73
2023/12/09 04:25:35;;;;;;;43.10;13.77;;;7.80;99.90;;;;;;5039558;28;20037;-73
2023/12/09 04:28:02;;;;;;;49.92;14.60;;;7.80;99.90;;;;;;5047447;28;20116;-73
2023/12/09 04:30:28;;;;;;;45.72;13.77;;;7.80;99.90;;;;;;5031924;28;20540;-72
2023/12/09 04:32:54;;;;;;;43.58;13.85;;;7.80;99.90;;;;;;5055435;28;20108;-72
2023/12/09 04:35:23;;;;;;;46.22;14.13;;;7.80;99.90;;;;;;5053175;28;20063;-72
2023/12/09 04:37:49;;;;;;;48.67;14.52;;;7.80;99.90;;;;;;5029063;28;20040;-72
2023/12/09 04:40:15;;;;;;;46.33;13.90;;;7.80;99.90;;;;;;5034444;28;20167;-72
2023/12/09 04:42:40;;;;;;;42.42;13.93;;;7.80;99.90;;;;;;5028854;28;20045;-72
2023/12/09 04:45:10;;;;;;;46.80;14.25;;;7.80;99.90;;;;;;5037115;28;20043;-74
2023/12/09 04:47:36;;;;;;;39.92;13.43;;;7.80;99.90;;;;;;5030771;28;20033;-72
2023/12/09 04:50:04;;;;;;;57.65;16.95;;;7.80;99.90;;;;;;5035075;28;20562;-72
2023/12/09 04:52:31;;;;;;;47.83;14.35;;;7.80;99.90;;;;;;5047269;28;20034;-72
2023/12/09 04:54:56;;;;;;;43.22;13.45;;;7.80;99.90;;;;;;5045117;28;20136;-72
2023/12/09 04:57:22;;;;;;;42.20;13.45;;;7.80;99.90;;;;;;5030752;28;20127;-72
2023/12/09 04:59:48;;;;;;;51.47;14.68;;;8.10;99.90;;;;;;5030667;28;20063;-72
2023/12/09 05:02:14;;;;;;;50.38;14.25;;;7.70;99.90;;;;;;5044815;28;20375;-72
2023/12/09 05:04:39;;;;;;;43.70;14.85;;;7.80;99.90;;;;;;5022262;28;20032;-72
2023/12/09 05:07:05;;;;;;;44.72;14.98;;;7.80;99.90;;;;;;5046295;28;20053;-72
2023/12/09 05:09:30;;;;;;;53.58;14.90;;;7.70;99.90;;;;;;5030016;28;20068;-72
2023/12/09 05:11:56;;;;;;;46.67;14.90;;;7.70;99.90;;;;;;5040538;28;20037;-72
2023/12/09 05:14:21;;;;;;;41.03;14.23;;;7.70;99.90;;;;;;5041539;28;20045;-72
2023/12/09 05:16:47;;;;;;;47.42;15.02;;;7.70;99.90;;;;;;5046501;28;20045;-73
2023/12/09 05:19:13;;;;;;;50.17;15.18;;;7.70;99.90;;;;;;5029708;28;20407;-73
2023/12/09 05:21:38;;;;;;;46.63;14.98;;;7.70;99.90;;;;;;5028524;28;20099;-73
2023/12/09 05:24:04;;;;;;;37.75;14.90;;;7.70;99.90;;;;;;5051018;28;20052;-73
2023/12/09 05:26:30;;;;;;;46.63;14.57;;;7.70;99.90;;;;;;5046826;28;20044;-73
2023/12/09 05:28:56;;;;;;;44.33;15.48;;;7.70;99.90;;;;;;5056900;28;20124;-72
2023/12/09 05:31:25;;;;;;;47.33;14.02;;;7.70;99.90;;;;;;5031443;28;20068;-73
2023/12/09 05:33:50;;;;;;;40.50;14.25;;;7.70;99.90;;;;;;5042174;28;20045;-72
2023/12/09 05:36:16;;;;;;;38.72;15.18;;;7.70;99.90;;;;;;5034465;28;20043;-72
2023/12/09 05:38:43;;;;;;;37.75;13.52;;;7.70;99.90;;;;;;5051774;28;20485;-73
2023/12/09 05:41:09;;;;;;;43.67;14.23;;;7.60;99.90;;;;;;5043636;28;20498;-73
2023/12/09 05:43:39;;;;;;;40.72;13.05;;;7.60;99.90;;;;;;5027777;28;20107;-72
2023/12/09 05:46:05;;;;;;;42.72;14.70;;;7.60;99.90;;;;;;5043818;28;20033;-73
2023/12/09 05:48:34;;;;;;;43.10;14.20;;;7.60;99.90;;;;;;5028110;28;20132;-73
2023/12/09 05:51:00;;;;;;;35.45;13.48;;;7.60;99.90;;;;;;5043214;28;20129;-72
2023/12/09 05:53:26;;;;;;;42.90;13.68;;;7.60;99.90;;;;;;5047349;28;20120;-72
2023/12/09 05:55:52;;;;;;;36.63;14.07;;;7.60;99.90;;;;;;5031905;28;20048;-72
2023/12/09 05:58:18;;;;;;;39.35;13.55;;;7.50;99.90;;;;;;5039169;28;20041;-73
2023/12/09 06:00:43;;;;;;;37.38;13.60;;;7.50;99.90;;;;;;5030204;28;20040;-72
2023/12/09 06:03:13;;;;;;;39.90;13.77;;;7.50;99.90;;;;;;5041938;28;20451;-72
2023/12/09 06:05:38;;;;;;;39.38;13.15;;;7.50;99.90;;;;;;5014063;28;20442;-73
2023/12/09 06:08:06;;;;;;;47.10;14.68;;;7.50;99.90;;;;;;5025191;28;20068;-72
2023/12/09 06:10:38;;;;;;;43.03;14.48;;;7.50;99.90;;;;;;5041159;28;20037;-73
2023/12/09 06:13:03;;;;;;;38.88;12.50;;;7.50;99.90;;;;;;5026437;28;20079;-72
2023/12/09 06:15:33;;;;;;;47.22;12.52;;;7.50;99.90;;;;;;5039550;28;20439;-74
2023/12/09 06:17:58;;;;;;;36.95;12.95;;;7.50;99.90;;;;;;5050454;28;20068;-72
2023/12/09 06:20:24;;;;;;;35.90;12.02;;;7.50;99.90;;;;;;5019285;28;21011;-72
2023/12/09 06:22:50;;;;;;;37.47;12.63;;;8.40;99.90;;;;;;5017927;28;20182;-73
2023/12/09 06:25:15;;;;;;;39.08;12.00;;;7.60;99.90;;;;;;5021810;28;20053;-72
2023/12/09 06:27:45;;;;;;;39.15;12.98;;;7.40;99.90;;;;;;5027097;28;20396;-73
2023/12/09 06:30:12;;;;;;;37.40;12.57;;;7.40;99.90;;;;;;5023765;28;20050;-73
2023/12/09 06:32:39;;;;;;;35.65;12.23;;;7.30;99.90;;;;;;5025741;28;20083;-72
2023/12/09 06:35:05;;;;;;;35.72;12.25;;;7.40;99.90;;;;;;5011220;28;20139;-72
2023/12/09 06:37:32;;;;;;;34.25;12.30;;;7.40;99.90;;;;;;5010771;28;20096;-72
2023/12/09 06:39:57;;;;;;;35.35;12.15;;;7.30;99.90;;;;;;5032396;28;20049;-72
2023/12/09 06:42:24;;;;;;;35.28;11.93;;;7.30;99.90;;;;;;5046019;28;20507;-72
2023/12/09 06:44:49;;;;;;;45.33;12.27;;;7.30;99.90;;;;;;5055944;28;20131;-72
2023/12/09 06:47:18;;;;;;;40.17;13.18;;;7.30;99.90;;;;;;5057465;28;20064;-72
2023/12/09 06:49:44;;;;;;;35.65;11.98;;;7.30;99.90;;;;;;5028467;28;20091;-72
2023/12/09 06:52:10;;;;;;;37.90;13.02;;;7.30;99.90;;;;;;5048448;28;20072;-72
2023/12/09 06:54:35;;;;;;;38.28;12.50;;;7.30;99.90;;;;;;5030451;28;20476;-72
2023/12/09 06:57:01;;;;;;;34.25;12.20;;;7.30;99.90;;;;;;5033196;28;20461;-72
2023/12/09 06:59:26;;;;;;;32.53;12.32;;;7.30;99.90;;;;;;5012129;28;20502;-72
2023/12/09 07:01:56;;;;;;;35.72;11.70;;;7.30;99.90;;;;;;5024866;28;20053;-73
2023/12/09 07:04:22;;;;;;;35.10;11.88;;;7.30;99.90;;;;;;5039398;28;20085;-73
2023/12/09 07:06:47;;;;;;;34.78;12.07;;;7.30;99.90;;;;;;5011264;28;20084;-72
2023/12/09 07:09:13;;;;;;;33.17;11.05;;;7.30;99.90;;;;;;5029855;28;20465;-72
2023/12/09 07:11:39;;;;;;;40.88;12.32;;;7.30;99.90;;;;;;5043187;28;20036;-73
2023/12/09 07:14:05;;;;;;;32.78;11.02;;;7.00;99.90;;;;;;5021392;28;20032;-72
2023/12/09 07:16:31;;;;;;;34.83;11.35;;;7.30;99.90;;;;;;5049265;28;20087;-73
2023/12/09 07:18:59;;;;;;;33.17;10.63;;;7.30;99.90;;;;;;5045232;28;20064;-74
2023/12/09 07:21:27;;;;;;;28.17;10.38;;;7.30;99.90;;;;;;5018007;28;20075;-73
2023/12/09 07:23:52;;;;;;;37.10;9.23;;;7.30;99.90;;;;;;5018911;28;20099;-73
2023/12/09 07:26:18;;;;;;;33.65;9.35;;;7.30;99.90;;;;;;5046077;28;20444;-73
2023/12/09 07:28:44;;;;;;;33.17;9.55;;;7.20;99.90;;;;;;5034908;28;20095;-73
2023/12/09 07:31:11;;;;;;;31.05;9.90;;;7.20;99.90;;;;;;5028511;28;20083;-73
2023/12/09 07:33:36;;;;;;;29.67;9.60;;;7.20;99.90;;;;;;5030819;28;20152;-73
2023/12/09 07:36:02;;;;;;;32.88;8.88;;;7.20;99.90;;;;;;5008797;28;20058;-73
2023/12/09 07:38:28;;;;;;;30.88;8.80;;;7.20;99.90;;;;;;5028235;28;20059;-72
2023/12/09 07:40:53;;;;;;;24.45;7.60;;;7.20;99.90;;;;;;5028062;28;20498;-73
2023/12/09 07:43:19;;;;;;;27.05;7.97;;;7.20;99.90;;;;;;5011338;28;20048;-73
2023/12/09 07:45:44;;;;;;;26.80;8.15;;;7.20;99.90;;;;;;5014171;28;20049;-73
2023/12/09 07:48:10;;;;;;;27.77;8.20;;;7.20;99.90;;;;;;5038909;28;20037;-73
2023/12/09 07:50:39;;;;;;;26.33;7.63;;;7.20;99.90;;;;;;5045042;28;20570;-73
2023/12/09 07:53:06;;;;;;;27.95;8.15;;;7.10;99.90;;;;;;5006526;28;20041;-74
2023/12/09 07:55:31;;;;;;;23.80;7.60;;;7.10;99.90;;;;;;5046577;28;20033;-73
2023/12/09 07:57:57;;;;;;;28.10;7.75;;;7.10;99.90;;;;;;5044047;28;20037;-74
2023/12/09 08:00:26;;;;;;;22.63;6.95;;;7.10;99.90;;;;;;5050483;28;20037;-73
2023/12/09 08:02:57;;;;;;;28.73;7.63;;;7.10;99.90;;;;;;5036606;28;20042;-73
2023/12/09 08:05:24;;;;;;;26.30;7.90;;;7.10;99.90;;;;;;5024928;28;20037;-74
2023/12/09 08:07:50;;;;;;;23.88;6.20;;;7.10;99.90;;;;;;5022435;28;20044;-72
2023/12/09 08:10:21;;;;;;;28.52;7.75;;;7.10;99.90;;;;;;5039780;28;20037;-73
2023/12/09 08:12:46;;;;;;;23.60;6.80;;;7.10;99.90;;;;;;5053020;28;20124;-73
2023/12/09 08:15:13;;;;;;;24.63;6.95;;;7.00;99.90;;;;;;5028747;28;20119;-73
2023/12/09 08:17:39;;;;;;;27.45;6.90;;;7.00;99.90;;;;;;5043476;28;20048;-73
2023/12/09 08:20:08;;;;;;;23.73;6.32;;;7.00;99.90;;;;;;5045834;28;20167;-72
2023/12/09 08:22:38;;;;;;;20.65;5.93;;;7.00;99.90;;;;;;5023079;28;20033;-73
2023/12/09 08:25:09;;;;;;;23.13;6.00;;;6.90;99.90;;;;;;5044870;28;20048;-73
2023/12/09 08:27:35;;;;;;;22.88;6.07;;;7.00;99.90;;;;;;5046012;28;20040;-74
2023/12/09 08:30:01;;;;;;;25.30;5.93;;;6.90;99.90;;;;;;5045582;28;20040;-74
2023/12/09 08:32:26;;;;;;;27.35;7.03;;;6.90;99.90;;;;;;5027201;28;20038;-73
2023/12/09 08:34:52;;;;;;;25.55;5.85;;;6.90;99.90;;;;;;5023803;28;20045;-73
2023/12/09 08:37:25;;;;;;;27.13;6.38;;;6.90;99.90;;;;;;5047096;28;20041;-73
2023/12/09 08:39:54;;;;;;;21.75;6.28;;;6.90;99.90;;;;;;5012164;28;20048;-72
2023/12/09 08:42:20;;;;;;;19.25;5.82;;;6.90;99.90;;;;;;5036757;28;20038;-73
2023/12/09 08:44:45;;;;;;;22.48;5.85;;;6.90;99.90;;;;;;5036700;28;20050;-74
2023/12/09 08:47:11;;;;;;;21.02;5.47;;;6.90;99.90;;;;;;5043434;28;20409;-73
2023/12/09 08:49:36;;;;;;;21.27;5.50;;;6.90;99.90;;;;;;5023665;28;20413;-73
2023/12/09 08:52:02;;;;;;;33.95;6.88;;;6.90;99.90;;;;;;5022425;28;20033;-72
2023/12/09 08:54:27;;;;;;;22.88;5.07;;;6.90;99.90;;;;;;5020044;28;20045;-73
2023/12/09 08:56:53;;;;;;;19.25;5.10;;;6.90;99.90;;;;;;5027677;28;20053;-72
2023/12/09 08:59:18;;;;;;;17.95;5.05;;;6.90;99.90;;;;;;5040188;28;20036;-73
2023/12/09 09:01:44;;;;;;;22.75;5.15;;;6.90;99.90;;;;;;5026960;28;20052;-72
2023/12/09 09:04:10;;;;;;;20.52;4.75;;;6.90;99.90;;;;;;5046850;28;20045;-72
2023/12/09 09:06:37;;;;;;;18.08;5.90;;;7.90;99.90;;;;;;5003553;28;20433;-73
2023/12/09 09:09:04;;;;;;;20.75;5.75;;;6.90;99.90;;;;;;5036004;28;20037;-73
2023/12/09 09:11:29;;;;;;;17.55;5.07;;;7.00;99.90;;;;;;5033059;28;20075;-73
2023/12/09 09:13:55;;;;;;;21.65;5.68;;;7.00;99.90;;;;;;5031762;28;20127;-73
2023/12/09 09:16:20;;;;;;;24.48;4.82;;;7.00;99.90;;;;;;5052384;28;20559;-73
2023/12/09 09:18:50;;;;;;;15.80;4.60;;;7.00;99.90;;;;;;5044540;28;20056;-73
2023/12/09 09:21:21;;;;;;;19.35;5.45;;;7.00;99.90;;;;;;5008122;28;20087;-73
2023/12/09 09:23:46;;;;;;;22.08;4.85;;;7.60;99.90;;;;;;5025983;28;20056;-73
2023/12/09 09:26:12;;;;;;;19.77;4.30;;;7.10;99.90;;;;;;5070643;22;20044;-77
2023/12/09 09:28:38;;;;;;;19.83;4.60;;;7.10;99.90;;;;;;5041732;28;20049;-77
2023/12/09 09:31:03;;;;;;;19.42;4.68;;;7.20;99.90;;;;;;5052897;28;20041;-77
2023/12/09 09:33:29;;;;;;;18.30;4.60;;;7.20;99.90;;;;;;5053340;28;20100;-77
2023/12/09 09:35:55;;;;;;;21.55;4.18;;;7.20;99.90;;;;;;5046915;28;20584;-77
2023/12/09 09:38:21;;;;;;;19.52;4.82;;;7.20;99.90;;;;;;5034686;28;20553;-76
2023/12/09 09:40:47;;;;;;;16.45;4.22;;;7.20;99.90;;;;;;5030382;28;20044;-78
2023/12/09 09:43:27;;;;;;;20.35;4.95;;;7.30;99.90;;;;;;5037345;28;20056;-78
2023/12/09 09:45:55;;;;;;;16.58;4.28;;;7.30;99.90;;;;;;5028783;28;20120;-78
2023/12/09 09:48:24;;;;;;;15.57;4.40;;;7.30;99.90;;;;;;5028569;28;20044;-77
2023/12/09 09:50:52;;;;;;;17.35;4.38;;;7.30;99.90;;;;;;5029688;28;20045;-77
2023/12/09 09:53:34;;;;;;;22.10;4.68;;;7.30;99.90;;;;;;5038865;28;20047;-76
2023/12/09 09:56:01;;;;;;;23.08;4.13;;;7.40;99.90;;;;;;5028774;28;20074;-76
2023/12/09 09:58:27;;;;;;;16.83;3.97;;;7.40;99.90;;;;;;5056502;28;20370;-78
2023/12/09 10:00:55;;;;;;;18.83;4.20;;;7.40;99.90;;;;;;5031144;28;20068;-77
2023/12/09 10:03:21;;;;;;;15.70;3.90;;;7.50;99.90;;;;;;5027241;28;20044;-78
2023/12/09 10:05:48;;;;;;;16.50;3.58;;;7.50;99.90;;;;;;5033729;28;20049;-77
2023/12/09 10:08:13;;;;;;;16.65;4.05;;;7.50;99.90;;;;;;5051280;28;20099;-78
2023/12/09 10:10:39;;;;;;;19.17;3.90;;;7.50;99.90;;;;;;5034082;28;20477;-77
2023/12/09 10:13:04;;;;;;;19.15;4.78;;;7.50;99.90;;;;;;5031209;28;20033;-77
2023/12/09 10:15:31;;;;;;;13.77;3.75;;;7.50;99.90;;;;;;5033124;28;20040;-77
2023/12/09 10:18:03;;;;;;;13.98;2.83;;;7.50;99.90;;;;;;5034060;28;20049;-78
2023/12/09 10:20:30;;;;;;;19.13;3.50;;;7.60;99.90;;;;;;5016754;28;20041;-77
2023/12/09 10:22:57;;;;;;;17.20;3.47;;;7.60;99.90;;;;;;5049796;28;20409;-77
2023/12/09 10:25:23;;;;;;;17.13;3.65;;;7.50;99.90;;;;;;5030696;28;20119;-77
2023/12/09 10:27:49;;;;;;;15.25;3.53;;;7.50;99.90;;;;;;5033770;28;20119;-77
2023/12/09 10:30:18;;;;;;;16.67;3.78;;;7.50;99.90;;;;;;5048816;28;20063;-77
2023/12/09 10:32:47;;;;;;;15.00;3.38;;;7.50;99.90;;;;;;5033274;28;20090;-77
2023/12/09 10:35:12;;;;;;;14.55;3.67;;;7.60;99.90;;;;;;5050637;28;20041;-77
2023/12/09 10:37:39;;;;;;;18.17;4.07;;;7.50;99.90;;;;;;5032845;28;20194;-77
2023/12/09 10:40:06;;;;;;;16.95;3.53;;;7.50;99.90;;;;;;5051128;28;20044;-77
2023/12/09 10:42:32;;;;;;;11.02;3.20;;;7.50;99.90;;;;;;5048932;28;20068;-77
2023/12/09 10:44:57;;;;;;;12.55;3.25;;;7.50;99.90;;;;;;5057799;28;20037;-77
2023/12/09 10:47:25;;;;;;;13.60;3.75;;;7.50;99.90;;;;;;5032971;28;20075;-77
2023/12/09 10:49:51;;;;;;;14.77;4.55;;;7.60;99.90;;;;;;5032771;28;20171;-77
2023/12/09 10:52:17;;;;;;;16.15;4.10;;;7.60;99.90;;;;;;5033412;28;20045;-77
2023/12/09 10:54:42;;;;;;;11.77;2.97;;;7.60;99.90;;;;;;5032089;28;20063;-77
2023/12/09 10:57:08;;;;;;;12.48;3.42;;;7.60;99.90;;;;;;5033582;28;20130;-77
2023/12/09 10:59:34;;;;;;;15.00;3.17;;;7.60;99.90;;;;;;5052666;28;20041;-78
2023/12/09 11:02:01;;;;;;;13.55;3.22;;;7.60;99.90;;;;;;5033235;28;20043;-77
2023/12/09 11:04:26;;;;;;;13.40;2.65;;;7.60;99.90;;;;;;5042691;28;20485;-77
2023/12/09 11:06:55;;;;;;;13.27;3.17;;;7.70;99.90;;;;;;5032368;28;20045;-77
2023/12/09 11:09:21;;;;;;;15.40;3.60;;;7.70;99.90;;;;;;5032508;28;20091;-77
2023/12/09 11:11:47;;;;;;;12.40;2.67;;;7.60;99.90;;;;;;5033294;28;20040;-77
2023/12/09 11:14:13;;;;;;;10.40;2.85;;;7.70;99.90;;;;;;5032511;28;20045;-77
2023/12/09 11:16:43;;;;;;;20.73;3.92;;;7.70;99.90;;;;;;5035910;28;20041;-77
2023/12/09 11:19:15;;;;;;;15.50;3.45;;;7.70;99.90;;;;;;5036623;28;20049;-77
2023/12/09 11:21:44;;;;;;;15.27;3.38;;;7.70;99.90;;;;;;5012917;28;20163;-77
2023/12/09 11:24:12;;;;;;;12.68;3.25;;;7.70;99.90;;;;;;5036987;28;20045;-77
2023/12/09 11:26:40;;;;;;;15.85;4.13;;;7.70;99.90;;;;;;5035694;28;20044;-77
2023/12/09 11:29:08;;;;;;;13.20;3.25;;;7.80;99.90;;;;;;5054369;28;20041;-77
2023/12/09 11:31:41;;;;;;;8.55;3.13;;;7.70;99.90;;;;;;5036620;28;20489;-78
2023/12/09 11:34:09;;;;;;;12.63;3.72;;;7.80;99.90;;;;;;5054593;28;20120;-77
2023/12/09 11:36:36;;;;;;;16.35;3.25;;;7.80;99.90;;;;;;5053719;28;20041;-77
2023/12/09 11:39:07;;;;;;;11.93;3.20;;;7.80;99.90;;;;;;5042756;28;20072;-78
2023/12/09 11:41:37;;;;;;;10.85;3.50;;;7.80;99.90;;;;;;5024432;28;20056;-77
2023/12/09 11:44:03;;;;;;;13.65;3.17;;;7.80;99.90;;;;;;5039721;28;20071;-77
2023/12/09 11:46:34;;;;;;;14.35;3.25;;;7.80;99.90;;;;;;5022658;28;20083;-78
2023/12/09 11:49:01;;;;;;;11.07;3.13;;;7.80;99.90;;;;;;5036326;28;20044;-77
2023/12/09 11:51:30;;;;;;;12.02;3.33;;;7.80;99.90;;;;;;5036279;28;20421;-78
2023/12/09 11:53:58;;;;;;;11.32;3.72;;;7.80;99.90;;;;;;5035958;28;20493;-77
2023/12/09 11:56:25;;;;;;;11.40;3.53;;;7.80;99.90;;;;;;5034989;28;20037;-77
2023/12/09 11:58:51;;;;;;;12.13;3.10;;;7.80;99.90;;;;;;5037514;28;20044;-78
2023/12/09 12:01:17;;;;;;;10.70;3.28;;;7.90;99.90;;;;;;5054338;28;20369;-77
2023/12/09 12:03:46;;;;;;;9.90;3.22;;;7.80;99.90;;;;;;5028664;28;20037;-77
2023/12/09 12:06:14;;;;;;;16.35;3.70;;;7.80;99.90;;;;;;5035051;28;20410;-77
2023/12/09 12:08:40;;;;;;;14.05;3.72;;;7.90;99.90;;;;;;5036287;28;20102;-77
2023/12/09 12:11:06;;;;;;;11.18;3.40;;;7.90;99.90;;;;;;5035381;28;20040;-77
2023/12/09 12:13:35;;;;;;;11.45;3.30;;;7.90;99.90;;;;;;5036178;28;20046;-77
2023/12/09 12:16:01;;;;;;;14.73;3.35;;;7.90;99.90;;;;;;5034469;28;20049;-78
2023/12/09 12:18:30;;;;;;;11.55;3.45;;;8.00;99.90;;;;;;5019459;28;20485;-77
2023/12/09 12:20:56;;;;;;;15.23;3.85;;;7.90;99.90;;;;;;5035546;28;20382;-77
2023/12/09 12:23:22;;;;;;;12.93;3.28;;;8.00;99.90;;;;;;5065672;28;20520;-77
2023/12/09 12:25:54;;;;;;;17.63;3.75;;;7.90;99.90;;;;;;5042062;28;20063;-78
2023/12/09 12:28:24;;;;;;;9.63;3.35;;;8.00;99.90;;;;;;5034498;28;20036;-77
2023/12/09 12:30:59;;;;;;;12.25;3.00;;;8.00;99.90;;;;;;5024582;28;20037;-79
2023/12/09 12:33:26;;;;;;;12.68;3.13;;;8.00;99.90;;;;;;5027289;28;20038;-79
2023/12/09 12:35:53;;;;;;;16.67;2.97;;;8.00;99.90;;;;;;5029209;28;20044;-76
2023/12/09 12:38:25;;;;;;;12.60;3.63;;;8.10;99.90;;;;;;5031553;28;20087;-76